Time;durP1;ratioP1;P1;durP2;ratioP2;P2;SDS_P1;SDS_P2;PMS_P1;PMS_P2;Temp;Humidity;BMP_temperature;BMP_pressure;BME280_temperature;BME280_humidity;BME280_pressure;Samples;Min_cycle;Max_cycle;Signal;HPM_P1;HPM_P2
2021/04/16 00:00:21;;;;;;;3.83;1.30;;;16.90;51.50;;;;;;4997406;28;20014;-64
2021/04/16 00:02:47;;;;;;;3.55;1.40;;;16.80;50.90;;;;;;5007784;28;20026;-63
2021/04/16 00:05:13;;;;;;;3.28;1.50;;;16.80;51.10;;;;;;5013017;28;20030;-64
2021/04/16 00:07:38;;;;;;;4.88;1.65;;;16.80;51.20;;;;;;5009483;28;20049;-64
2021/04/16 00:10:13;;;;;;;2.97;1.25;;;16.80;51.30;;;;;;5011219;28;20072;-64
2021/04/16 00:12:39;;;;;;;4.47;1.48;;;16.80;51.20;;;;;;5003213;28;20014;-63
2021/04/16 00:15:11;;;;;;;6.55;1.55;;;16.70;51.10;;;;;;5001900;28;20030;-65
2021/04/16 00:17:37;;;;;;;3.88;1.35;;;16.80;51.30;;;;;;4993297;28;20030;-64
2021/04/16 00:20:06;;;;;;;4.88;1.27;;;16.70;51.30;;;;;;5004985;28;20602;-65
2021/04/16 00:22:31;;;;;;;4.43;1.30;;;16.70;51.30;;;;;;5011286;28;20037;-64
2021/04/16 00:24:57;;;;;;;3.00;1.27;;;16.70;51.40;;;;;;4994140;28;20037;-65
2021/04/16 00:27:22;;;;;;;4.53;1.33;;;16.70;51.30;;;;;;4997311;28;20561;-64
2021/04/16 00:29:48;;;;;;;4.72;1.40;;;16.70;51.40;;;;;;5011414;28;20038;-64
2021/04/16 00:32:13;;;;;;;4.18;1.40;;;16.60;51.50;;;;;;4999299;28;20026;-64
2021/04/16 00:34:39;;;;;;;2.92;1.30;;;16.60;51.50;;;;;;5004129;28;20025;-64
2021/04/16 00:37:04;;;;;;;3.83;1.00;;;16.60;51.30;;;;;;5001804;28;20577;-63
2021/04/16 00:39:30;;;;;;;2.80;1.20;;;16.60;51.40;;;;;;5012008;28;20034;-64
2021/04/16 00:41:55;;;;;;;3.25;1.35;;;16.60;51.50;;;;;;5011419;28;20036;-65
2021/04/16 00:44:21;;;;;;;3.63;1.33;;;16.60;51.50;;;;;;5000996;28;20069;-63
2021/04/16 00:46:52;;;;;;;2.67;1.30;;;16.50;51.40;;;;;;4991444;28;20063;-64
2021/04/16 00:49:23;;;;;;;2.33;1.30;;;16.50;51.40;;;;;;5010946;28;20551;-64
2021/04/16 00:51:55;;;;;;;3.05;1.10;;;16.50;51.50;;;;;;5011010;28;20026;-64
2021/04/16 00:54:25;;;;;;;2.50;1.50;;;16.50;51.50;;;;;;4993080;28;20092;-65
2021/04/16 00:56:51;;;;;;;2.35;1.25;;;16.50;51.60;;;;;;4992296;28;20391;-64
2021/04/16 00:59:21;;;;;;;2.47;1.02;;;16.50;51.50;;;;;;5010452;28;20126;-64
2021/04/16 01:01:46;;;;;;;2.75;1.20;;;16.50;51.60;;;;;;5000976;28;20018;-63
2021/04/16 01:04:12;;;;;;;4.20;1.20;;;16.40;51.50;;;;;;5010393;28;20095;-64
2021/04/16 01:06:38;;;;;;;2.17;1.08;;;16.40;51.70;;;;;;5011536;28;20014;-65
2021/04/16 01:09:04;;;;;;;3.83;1.40;;;16.40;52.00;;;;;;5004487;28;20031;-64
2021/04/16 01:11:30;;;;;;;2.95;1.27;;;16.40;51.50;;;;;;4999347;28;20518;-64
2021/04/16 01:13:57;;;;;;;3.17;1.48;;;16.40;51.60;;;;;;4992053;28;20500;-64
2021/04/16 01:16:29;;;;;;;3.95;1.40;;;16.40;51.90;;;;;;4991121;28;20091;-65
2021/04/16 01:18:55;;;;;;;;;;;16.40;51.90;;;;;;5003339;28;20037;-64
2021/04/16 01:21:26;;;;;;;2.92;1.15;;;16.30;51.70;;;;;;5010478;28;19963;-64
2021/04/16 01:23:55;;;;;;;3.80;1.35;;;16.30;52.00;;;;;;5010050;28;20034;-64
2021/04/16 01:26:29;;;;;;;1.50;1.00;;;16.30;51.80;;;;;;5011277;28;20056;-63
2021/04/16 01:28:54;;;;;;;2.40;1.00;;;16.30;51.80;;;;;;4996889;28;20053;-64
2021/04/16 01:31:24;;;;;;;2.67;1.20;;;16.30;52.00;;;;;;4996915;28;20488;-65
2021/04/16 01:33:50;;;;;;;2.35;1.30;;;16.30;51.90;;;;;;5008568;28;20022;-63
2021/04/16 01:36:25;;;;;;;2.65;1.20;;;16.30;51.80;;;;;;4992187;28;20030;-64
2021/04/16 01:38:51;;;;;;;3.35;1.33;;;16.30;51.80;;;;;;5001288;28;20026;-64
2021/04/16 01:41:18;;;;;;;3.22;1.20;;;16.30;51.90;;;;;;4992002;28;20034;-64
2021/04/16 01:43:52;;;;;;;2.70;1.20;;;16.30;51.80;;;;;;4992831;28;20026;-64
2021/04/16 01:46:19;;;;;;;2.97;1.23;;;16.30;51.70;;;;;;5003245;28;20093;-64
2021/04/16 01:48:54;;;;;;;3.03;1.15;;;16.20;51.90;;;;;;5008924;28;20030;-64
2021/04/16 01:51:23;;;;;;;2.88;1.30;;;16.20;51.80;;;;;;4992728;28;20101;-65
2021/04/16 01:53:49;;;;;;;6.50;1.55;;;16.20;51.90;;;;;;4993581;28;20106;-64
2021/04/16 01:56:15;;;;;;;2.30;1.05;;;16.20;52.00;;;;;;4995523;28;20137;-64
2021/04/16 01:58:41;;;;;;;3.15;1.17;;;16.20;51.80;;;;;;4991957;28;20037;-64
2021/04/16 02:01:08;;;;;;;2.97;1.30;;;16.20;51.90;;;;;;5005308;28;20108;-64
2021/04/16 02:03:33;;;;;;;3.20;1.20;;;16.20;51.90;;;;;;5011123;28;20021;-64
2021/04/16 02:05:59;;;;;;;3.25;1.35;;;16.20;52.10;;;;;;5007068;28;20056;-64
2021/04/16 02:08:25;;;;;;;2.30;1.10;;;16.20;51.90;;;;;;5009925;28;20071;-63
2021/04/16 02:10:51;;;;;;;3.15;1.33;;;16.20;51.90;;;;;;5000537;28;20379;-64
2021/04/16 02:13:17;;;;;;;2.25;1.33;;;16.10;51.90;;;;;;4991491;28;20026;-65
2021/04/16 02:15:42;;;;;;;3.55;1.30;;;16.20;51.90;;;;;;5008201;28;20041;-64
2021/04/16 02:18:08;;;;;;;2.53;1.10;;;16.10;51.90;;;;;;5012246;28;20057;-64
2021/04/16 02:20:34;;;;;;;2.15;1.10;;;16.10;51.80;;;;;;5007860;28;20475;-65
2021/04/16 02:23:00;;;;;;;3.10;1.33;;;16.10;52.00;;;;;;5013485;28;20097;-64
2021/04/16 02:25:25;;;;;;;2.70;1.10;;;16.10;52.10;;;;;;5008600;28;20440;-64
2021/04/16 02:27:51;;;;;;;2.95;1.27;;;16.10;52.20;;;;;;4994055;28;20034;-64
2021/04/16 02:30:30;;;;;;;2.13;1.08;;;16.10;51.90;;;;;;4997275;28;20484;-63
2021/04/16 02:32:56;;;;;;;2.80;1.15;;;16.10;52.10;;;;;;5012920;28;20025;-63
2021/04/16 02:35:24;;;;;;;4.05;1.58;;;16.10;52.00;;;;;;5014176;28;20468;-64
2021/04/16 02:37:49;;;;;;;2.42;1.20;;;16.10;52.00;;;;;;5013017;28;20426;-64
2021/04/16 02:40:18;;;;;;;1.80;1.13;;;16.00;52.00;;;;;;5013955;28;20022;-64
2021/04/16 02:42:44;;;;;;;3.20;1.40;;;16.00;52.10;;;;;;5013923;28;20022;-63
2021/04/16 02:45:12;;;;;;;3.53;1.17;;;16.00;52.00;;;;;;5014366;28;20033;-64
2021/04/16 02:47:38;;;;;;;3.97;1.33;;;16.00;52.20;;;;;;5012656;28;20501;-64
2021/04/16 02:50:06;;;;;;;2.72;1.20;;;16.00;52.10;;;;;;5011386;28;20026;-63
2021/04/16 02:52:32;;;;;;;3.35;1.40;;;16.00;52.20;;;;;;5013727;28;20030;-64
2021/04/16 02:54:57;;;;;;;3.85;1.42;;;16.00;52.10;;;;;;5007422;28;20445;-64
2021/04/16 02:57:24;;;;;;;2.80;1.25;;;15.90;52.10;;;;;;4993510;28;20488;-64
2021/04/16 02:59:50;;;;;;;3.05;1.23;;;15.90;52.20;;;;;;4994311;28;20026;-64
2021/04/16 03:02:16;;;;;;;2.20;1.13;;;15.90;52.30;;;;;;5003270;28;20026;-64
2021/04/16 03:04:42;;;;;;;2.70;1.10;;;15.90;52.20;;;;;;4998900;28;20034;-65
2021/04/16 03:07:07;;;;;;;2.85;1.20;;;15.90;52.20;;;;;;4994657;28;20672;-64
2021/04/16 03:09:33;;;;;;;3.83;1.40;;;15.90;52.10;;;;;;4994467;28;20104;-64
2021/04/16 03:11:58;;;;;;;3.10;1.25;;;15.90;52.10;;;;;;5005498;28;20084;-64
2021/04/16 03:14:24;;;;;;;2.55;1.10;;;15.90;52.10;;;;;;5013726;28;20515;-64
2021/04/16 03:16:50;;;;;;;3.35;1.40;;;15.90;52.20;;;;;;5011136;28;20053;-64
2021/04/16 03:19:15;;;;;;;2.70;1.10;;;15.90;52.30;;;;;;5013532;28;20057;-64
2021/04/16 03:21:41;;;;;;;2.35;1.10;;;15.80;52.20;;;;;;5007083;28;20089;-64
2021/04/16 03:24:07;;;;;;;1.90;1.02;;;15.80;52.30;;;;;;4996546;28;20100;-64
2021/04/16 03:26:33;;;;;;;2.40;1.20;;;15.80;52.20;;;;;;5003473;28;20407;-64
2021/04/16 03:29:00;;;;;;;2.85;1.17;;;15.80;52.20;;;;;;5000253;28;20027;-64
2021/04/16 03:31:27;;;;;;;3.00;1.30;;;15.80;52.40;;;;;;4997309;28;20026;-64
2021/04/16 03:33:55;;;;;;;2.63;1.27;;;15.80;52.30;;;;;;4993825;28;20027;-64
2021/04/16 03:36:21;;;;;;;3.50;1.23;;;15.80;52.40;;;;;;4994141;28;20061;-64
2021/04/16 03:38:47;;;;;;;3.92;1.30;;;15.80;52.40;;;;;;5006492;28;20054;-63
2021/04/16 03:41:13;;;;;;;2.72;1.42;;;15.80;52.30;;;;;;5012434;28;20025;-64
2021/04/16 03:43:40;;;;;;;3.40;1.50;;;15.80;52.30;;;;;;5011109;28;20034;-65
2021/04/16 03:46:05;;;;;;;2.05;1.10;;;15.80;52.40;;;;;;5013119;28;20368;-64
2021/04/16 03:48:31;;;;;;;3.70;1.20;;;15.80;52.20;;;;;;5009340;28;20029;-65
2021/04/16 03:50:57;;;;;;;2.42;1.20;;;15.70;52.30;;;;;;5010443;28;20022;-63
2021/04/16 03:53:23;;;;;;;3.30;1.23;;;15.70;52.30;;;;;;5012959;28;20033;-64
2021/04/16 03:55:49;;;;;;;2.13;1.17;;;15.70;52.20;;;;;;5011604;28;20034;-64
2021/04/16 03:58:14;;;;;;;3.65;1.30;;;15.60;52.30;;;;;;4996218;28;20052;-63
2021/04/16 04:00:40;;;;;;;3.55;1.23;;;15.60;52.30;;;;;;4997310;28;20034;-63
2021/04/16 04:03:08;;;;;;;3.08;1.27;;;15.70;52.30;;;;;;5003349;28;20038;-63
2021/04/16 04:05:35;;;;;;;2.75;1.30;;;15.70;52.30;;;;;;5004212;28;20032;-64
2021/04/16 04:08:01;;;;;;;2.38;1.10;;;15.60;52.30;;;;;;5012987;28;20096;-63
2021/04/16 04:10:28;;;;;;;2.15;1.10;;;15.70;52.30;;;;;;5009755;28;20484;-64
2021/04/16 04:12:54;;;;;;;2.53;1.23;;;15.70;52.30;;;;;;5011375;28;20022;-64
2021/04/16 04:15:20;;;;;;;3.83;1.10;;;15.70;52.30;;;;;;5008290;28;20561;-63
2021/04/16 04:17:46;;;;;;;2.13;1.17;;;15.70;52.40;;;;;;5011635;28;20025;-63
2021/04/16 04:20:24;;;;;;;2.95;1.33;;;15.60;52.30;;;;;;5001538;28;20030;-64
2021/04/16 04:22:50;;;;;;;3.10;1.23;;;15.70;52.50;;;;;;4993015;28;20559;-63
2021/04/16 04:25:18;;;;;;;2.45;1.30;;;15.60;52.40;;;;;;4992910;28;20126;-64
2021/04/16 04:27:44;;;;;;;4.65;1.70;;;15.70;52.40;;;;;;4993994;28;20054;-64
2021/04/16 04:30:10;;;;;;;2.30;1.42;;;15.60;52.40;;;;;;5000695;28;20526;-63
2021/04/16 04:32:36;;;;;;;3.60;1.33;;;15.60;52.50;;;;;;5006012;28;20456;-64
2021/04/16 04:35:02;;;;;;;5.00;1.45;;;15.60;52.70;;;;;;4993330;28;20026;-62
2021/04/16 04:37:27;;;;;;;2.65;1.25;;;15.70;52.40;;;;;;4995731;28;20399;-64
2021/04/16 04:39:53;;;;;;;2.97;1.38;;;15.70;52.60;;;;;;5002872;28;20037;-64
2021/04/16 04:42:18;;;;;;;2.28;1.27;;;15.70;52.60;;;;;;5005074;28;20034;-65
2021/04/16 04:44:44;;;;;;;4.97;1.35;;;15.70;52.50;;;;;;5005919;28;20037;-63
2021/04/16 04:47:10;;;;;;;3.47;1.42;;;15.70;52.40;;;;;;5005093;28;20033;-63
2021/04/16 04:49:36;;;;;;;5.15;1.63;;;15.70;52.40;;;;;;5004134;28;20053;-63
2021/04/16 04:52:16;;;;;;;4.38;1.42;;;15.70;52.50;;;;;;4990546;28;20962;-63
2021/04/16 04:54:46;;;;;;;4.63;2.40;;;15.70;52.60;;;;;;5003219;28;20042;-63
2021/04/16 04:57:12;;;;;;;31.92;29.15;;;15.70;52.60;;;;;;4998589;28;20038;-64
2021/04/16 04:59:37;;;;;;;9.75;7.97;;;15.70;52.70;;;;;;5003704;28;20037;-63
2021/04/16 05:02:03;;;;;;;10.68;7.80;;;15.70;52.50;;;;;;5004068;28;20087;-64
2021/04/16 05:04:29;;;;;;;8.23;4.10;;;15.70;52.90;;;;;;4987052;28;20041;-65
2021/04/16 05:06:54;;;;;;;5.78;2.83;;;15.80;52.30;;;;;;4990503;28;20597;-63
2021/04/16 05:09:20;;;;;;;8.85;3.55;;;16.00;51.60;;;;;;4998960;28;20034;-65
2021/04/16 05:11:45;;;;;;;7.07;2.83;;;16.20;51.00;;;;;;4992955;28;20026;-64
2021/04/16 05:14:11;;;;;;;8.23;2.88;;;16.20;50.80;;;;;;5000628;28;20049;-63
2021/04/16 05:16:36;;;;;;;6.60;2.47;;;16.20;50.90;;;;;;5002162;28;20041;-62
2021/04/16 05:19:02;;;;;;;6.60;2.50;;;16.20;51.00;;;;;;5005623;28;20025;-64
2021/04/16 05:21:28;;;;;;;6.00;2.50;;;16.20;50.90;;;;;;5002619;28;20762;-63
2021/04/16 05:23:55;;;;;;;4.88;2.50;;;16.20;50.80;;;;;;4995453;28;20402;-62
2021/04/16 05:26:21;;;;;;;6.82;2.40;;;16.20;50.60;;;;;;5004022;28;20030;-63
2021/04/16 05:28:46;;;;;;;4.85;2.30;;;16.30;51.00;;;;;;5002683;28;20101;-63
2021/04/16 05:31:12;;;;;;;5.75;2.28;;;16.30;50.40;;;;;;4999913;28;20029;-63
2021/04/16 05:33:37;;;;;;;6.00;2.65;;;16.30;50.30;;;;;;5005318;28;20250;-63
2021/04/16 05:36:03;;;;;;;53.30;41.80;;;16.40;50.20;;;;;;5004210;28;20025;-63
2021/04/16 05:38:29;;;;;;;39.20;30.25;;;16.40;50.30;;;;;;5004858;28;20042;-64
2021/04/16 05:40:55;;;;;;;29.80;20.73;;;16.50;50.20;;;;;;5003129;28;20045;-63
2021/04/16 05:43:21;;;;;;;19.50;10.00;;;16.50;50.50;;;;;;5003217;28;20030;-63
2021/04/16 05:45:46;;;;;;;24.42;9.93;;;16.60;50.70;;;;;;5005297;28;20022;-62
2021/04/16 05:48:12;;;;;;;18.67;10.10;;;16.60;50.80;;;;;;5002368;28;20117;-63
2021/04/16 05:50:37;;;;;;;15.57;8.00;;;16.60;50.80;;;;;;5004864;28;20025;-65
2021/04/16 05:53:03;;;;;;;16.50;7.57;;;16.60;50.90;;;;;;4985838;28;20387;-66
2021/04/16 05:55:30;;;;;;;13.50;7.82;;;16.60;50.80;;;;;;4988643;28;20026;-67
2021/04/16 05:57:56;;;;;;;15.70;7.28;;;16.70;50.60;;;;;;4998651;28;20033;-63
2021/04/16 06:00:22;;;;;;;18.95;7.30;;;16.70;50.60;;;;;;5007265;28;20389;-62
2021/04/16 06:02:48;;;;;;;18.30;6.88;;;16.70;50.60;;;;;;4998929;28;20427;-63
2021/04/16 06:05:16;;;;;;;19.80;6.72;;;16.70;50.90;;;;;;4994239;28;20036;-63
2021/04/16 06:07:41;;;;;;;24.70;13.38;;;16.80;50.80;;;;;;5002487;28;20057;-62
2021/04/16 06:10:10;;;;;;;39.92;25.35;;;16.90;50.80;;;;;;4987460;28;20471;-63
2021/04/16 06:12:37;;;;;;;46.42;26.80;;;17.00;50.70;;;;;;4990495;28;20084;-63
2021/04/16 06:15:15;;;;;;;33.03;16.38;;;17.10;50.30;;;;;;4987512;28;20392;-62
2021/04/16 06:17:41;;;;;;;24.73;12.98;;;17.10;50.20;;;;;;4989287;28;20030;-63
2021/04/16 06:20:08;;;;;;;23.02;12.85;;;17.20;50.00;;;;;;4993370;28;20038;-64
2021/04/16 06:22:34;;;;;;;20.90;11.95;;;17.20;50.00;;;;;;5000512;28;20503;-63
2021/04/16 06:25:00;;;;;;;20.15;11.15;;;17.40;49.90;;;;;;5005366;28;20049;-62
2021/04/16 06:27:25;;;;;;;16.20;9.57;;;17.50;49.60;;;;;;4992921;28;20034;-63
2021/04/16 06:29:51;;;;;;;17.48;9.63;;;17.60;49.40;;;;;;5005052;28;20042;-63
2021/04/16 06:32:19;;;;;;;14.82;8.02;;;17.80;49.20;;;;;;5004822;28;20029;-63
2021/04/16 06:34:45;;;;;;;16.40;8.48;;;17.90;48.80;;;;;;5001448;28;20030;-62
2021/04/16 06:37:11;;;;;;;13.13;7.78;;;18.30;48.00;;;;;;5001425;28;20082;-63
2021/04/16 06:39:38;;;;;;;12.95;7.47;;;18.70;47.50;;;;;;4997312;28;20025;-62
2021/04/16 06:42:13;;;;;;;12.18;7.25;;;18.80;47.00;;;;;;5000505;28;20641;-63
2021/04/16 06:44:39;;;;;;;14.15;7.00;;;19.30;46.20;;;;;;4992328;28;20030;-63
2021/04/16 06:47:29;;;;;;;12.95;6.85;;;19.30;45.90;;;;;;4989530;28;20022;-63
2021/04/16 06:49:56;;;;;;;;;;;19.50;45.70;;;;;;4980814;28;20081;-64
2021/04/16 06:52:40;;;;;;;15.93;6.53;;;19.50;45.80;;;;;;5005333;28;20338;-62
2021/04/16 06:55:11;;;;;;;13.10;6.40;;;19.60;45.60;;;;;;5006466;28;20033;-63
2021/04/16 06:57:45;;;;;;;16.90;6.35;;;20.10;44.90;;;;;;5001582;28;20032;-61
2021/04/16 07:00:30;;;;;;;13.73;6.13;;;20.50;44.00;;;;;;4989516;28;20030;-62
2021/04/16 07:02:59;;;;;;;12.60;6.20;;;21.10;42.80;;;;;;5006894;28;20132;-60
2021/04/16 07:05:37;;;;;;;10.95;5.95;;;21.20;42.50;;;;;;5006229;28;20026;-64
2021/04/16 07:08:05;;;;;;;12.95;5.43;;;20.70;43.00;;;;;;5007784;28;20095;-62
2021/04/16 07:10:39;;;;;;;16.50;5.43;;;20.50;43.40;;;;;;5006803;28;20030;-62
2021/04/16 07:13:06;;;;;;;12.93;5.13;;;20.90;43.10;;;;;;5007695;28;20033;-62
2021/04/16 07:15:40;;;;;;;10.32;4.95;;;21.20;42.20;;;;;;5007877;28;20022;-62
2021/04/16 07:18:07;;;;;;;8.32;4.30;;;20.80;42.30;;;;;;5006593;28;20201;-61
2021/04/16 07:20:33;;;;;;;9.07;4.32;;;20.50;43.10;;;;;;5007878;28;20380;-62
2021/04/16 07:22:59;;;;;;;9.55;5.05;;;20.20;43.50;;;;;;5007311;28;20034;-61
2021/04/16 07:25:39;;;;;;;11.88;4.50;;;20.00;43.90;;;;;;5008083;28;20595;-66
2021/04/16 07:28:09;;;;;;;13.75;4.70;;;20.10;44.10;;;;;;5000687;28;20073;-61
2021/04/16 07:30:48;;;;;;;12.38;4.95;;;20.00;44.30;;;;;;5005188;28;20133;-62
2021/04/16 07:33:23;;;;;;;9.27;4.40;;;19.90;44.50;;;;;;4999467;28;20037;-61
2021/04/16 07:35:49;;;;;;;13.38;4.78;;;19.90;44.80;;;;;;4991203;28;20030;-61
2021/04/16 07:38:27;;;;;;;9.05;4.45;;;19.90;44.80;;;;;;5001754;28;20088;-62
2021/04/16 07:41:14;;;;;;;9.80;4.30;;;19.90;44.80;;;;;;5002180;28;20033;-61
2021/04/16 07:43:49;;;;;;;14.85;4.32;;;19.90;44.80;;;;;;5006537;28;20045;-61
2021/04/16 07:46:27;;;;;;;9.57;4.05;;;19.90;45.10;;;;;;5001138;28;20030;-61
2021/04/16 07:49:12;;;;;;;8.43;3.55;;;19.90;45.00;;;;;;5005446;28;20062;-62
2021/04/16 07:51:39;;;;;;;10.45;3.80;;;20.20;44.50;;;;;;5007098;28;20018;-61
2021/04/16 07:54:21;;;;;;;8.23;3.53;;;20.10;44.50;;;;;;5006811;28;20105;-61
2021/04/16 07:56:48;;;;;;;9.77;3.85;;;19.90;44.60;;;;;;5006098;28;20034;-62
2021/04/16 07:59:16;;;;;;;8.77;3.67;;;19.90;44.70;;;;;;5004969;28;20065;-62
2021/04/16 08:01:44;;;;;;;9.13;3.20;;;19.90;44.90;;;;;;5006729;28;20037;-62
2021/04/16 08:04:12;;;;;;;8.18;3.08;;;19.90;44.60;;;;;;4996296;28;20054;-62
2021/04/16 08:06:44;;;;;;;5.68;2.88;;;20.40;44.00;;;;;;5004338;28;20053;-63
2021/04/16 08:09:12;;;;;;;5.07;2.47;;;20.70;43.20;;;;;;5005411;28;20018;-62
2021/04/16 08:11:39;;;;;;;9.60;2.83;;;21.00;42.60;;;;;;5001235;28;20156;-62
2021/04/16 08:14:10;;;;;;;9.00;2.97;;;21.30;42.20;;;;;;5018411;28;20025;-63
2021/04/16 08:16:41;;;;;;;8.10;3.13;;;21.20;42.20;;;;;;5013652;28;20030;-62
2021/04/16 08:19:19;;;;;;;7.20;2.97;;;21.40;42.20;;;;;;5019288;28;20033;-62
2021/04/16 08:21:51;;;;;;;10.75;2.75;;;21.90;41.30;;;;;;5021602;28;20026;-62
2021/04/16 08:24:31;;;;;;;8.52;2.58;;;21.70;41.30;;;;;;5008006;28;20487;-62
2021/04/16 08:27:28;;;;;;;6.68;2.88;;;22.20;40.40;;;;;;5015514;28;20191;-62
2021/04/16 08:29:59;;;;;;;5.63;2.65;;;22.30;40.60;;;;;;5007320;28;20038;-61
2021/04/16 08:32:58;;;;;;;6.00;2.70;;;23.50;38.80;;;;;;5009434;28;20073;-62
2021/04/16 08:35:59;;;;;;;11.02;2.78;;;24.20;37.60;;;;;;5012154;28;20273;-62
2021/04/16 08:38:30;;;;;;;9.23;2.60;;;24.60;36.90;;;;;;5013425;28;20037;-64
2021/04/16 08:41:00;;;;;;;7.15;2.33;;;24.20;36.60;;;;;;5008451;28;20032;-62
2021/04/16 08:43:49;;;;;;;12.95;3.08;;;24.60;36.50;;;;;;5010453;28;20061;-63
2021/04/16 08:46:23;;;;;;;12.52;2.70;;;24.90;36.10;;;;;;5012425;28;20018;-62
2021/04/16 08:48:54;;;;;;;8.20;2.70;;;25.10;35.70;;;;;;5011435;28;20459;-61
2021/04/16 08:51:23;;;;;;;7.20;2.50;;;25.20;35.60;;;;;;5010660;28;20017;-62
2021/04/16 08:53:49;;;;;;;8.15;2.45;;;25.30;35.40;;;;;;5011915;28;20034;-62
2021/04/16 08:56:27;;;;;;;9.15;2.60;;;25.40;35.40;;;;;;5012321;28;20430;-65
2021/04/16 08:58:53;;;;;;;6.53;2.20;;;25.40;35.00;;;;;;5012364;28;20025;-62
2021/04/16 09:01:27;;;;;;;6.97;2.50;;;25.50;34.90;;;;;;5010939;28;20026;-63
2021/04/16 09:04:16;;;;;;;6.88;2.17;;;25.60;35.00;;;;;;5011830;28;20118;-62
2021/04/16 09:06:41;;;;;;;6.65;1.95;;;25.80;34.70;;;;;;5011983;28;20032;-73
2021/04/16 09:09:11;;;;;;;7.63;2.40;;;25.80;34.30;;;;;;5011642;28;20474;-69
2021/04/16 09:11:45;;;;;;;8.30;2.45;;;25.90;34.20;;;;;;5012061;28;20037;-61
2021/04/16 09:14:33;;;;;;;5.80;2.03;;;26.00;34.00;;;;;;5011785;28;20423;-62
2021/04/16 09:17:01;;;;;;;8.90;2.30;;;26.00;33.90;;;;;;5010673;28;20391;-62
2021/04/16 09:19:26;;;;;;;5.30;2.03;;;26.10;33.90;;;;;;5011719;28;20026;-63
2021/04/16 09:22:05;;;;;;;9.40;2.15;;;26.30;33.90;;;;;;5010634;28;20495;-62
2021/04/16 09:24:53;;;;;;;5.25;2.05;;;26.30;33.40;;;;;;5011631;28;20523;-62
2021/04/16 09:27:38;;;;;;;5.47;2.10;;;26.40;33.40;;;;;;5011387;28;20103;-61
2021/04/16 09:30:06;;;;;;;5.45;1.80;;;26.50;33.30;;;;;;5011705;28;20030;-62
2021/04/16 09:32:35;;;;;;;7.82;2.10;;;26.50;33.20;;;;;;5010488;28;20084;-63
2021/04/16 09:35:08;;;;;;;4.97;1.60;;;26.60;33.20;;;;;;5010293;28;20562;-62
2021/04/16 09:37:37;;;;;;;5.28;1.88;;;26.70;33.00;;;;;;5011781;28;20570;-62
2021/04/16 09:40:25;;;;;;;6.50;1.98;;;26.70;32.90;;;;;;5011722;28;20029;-62
2021/04/16 09:43:09;;;;;;;7.43;1.88;;;26.80;32.80;;;;;;5010234;28;20022;-63
2021/04/16 09:45:35;;;;;;;5.50;1.70;;;26.80;32.90;;;;;;5011715;28;20044;-61
2021/04/16 09:48:04;;;;;;;3.45;1.50;;;26.90;32.70;;;;;;5011784;28;20483;-61
2021/04/16 09:50:37;;;;;;;5.10;1.60;;;26.90;32.60;;;;;;5011601;28;20033;-65
2021/04/16 09:53:16;;;;;;;5.25;1.50;;;26.80;32.60;;;;;;5011540;28;20502;-63
2021/04/16 09:55:47;;;;;;;4.22;1.67;;;26.70;32.80;;;;;;5011701;28;20021;-62
2021/04/16 09:58:34;;;;;;;5.38;1.65;;;26.60;32.70;;;;;;5011707;28;20065;-63
2021/04/16 10:01:16;;;;;;;3.45;1.40;;;26.70;32.80;;;;;;5010328;28;20026;-62
2021/04/16 10:03:49;;;;;;;4.75;1.50;;;26.20;33.00;;;;;;5011213;28;20514;-62
2021/04/16 10:06:26;;;;;;;3.65;1.80;;;26.60;33.00;;;;;;5010253;28;20072;-62
2021/04/16 10:09:17;;;;;;;3.42;1.45;;;26.80;32.80;;;;;;5011482;28;20029;-62
2021/04/16 10:12:14;;;;;;;4.30;1.45;;;26.90;32.40;;;;;;5008815;28;20041;-62
2021/04/16 10:14:40;;;;;;;4.43;1.42;;;26.60;33.20;;;;;;5010019;28;20080;-64
2021/04/16 10:17:15;;;;;;;4.82;1.45;;;26.30;33.50;;;;;;5010167;28;20026;-61
2021/04/16 10:19:41;;;;;;;4.10;1.33;;;26.60;33.00;;;;;;5010044;28;20076;-62
2021/04/16 10:22:21;;;;;;;4.03;1.50;;;26.80;32.90;;;;;;5010034;28;20057;-62
2021/04/16 10:31:46;;;;;;;3.50;1.40;;;27.00;32.40;;;;;;5011194;28;20619;-62
2021/04/16 10:39:48;;;;;;;3.25;1.27;;;26.80;32.60;;;;;;5011881;28;20568;-63
2021/04/16 12:40:26;;;;;;;2.97;0.98;;;21.10;40.60;;;;;;5004835;28;20021;-61
2021/04/16 12:42:53;;;;;;;5.05;1.08;;;21.10;41.30;;;;;;5007563;28;20061;-61
2021/04/16 12:45:19;;;;;;;3.63;0.85;;;21.00;40.90;;;;;;4993112;28;20030;-62
2021/04/16 12:47:45;;;;;;;2.15;0.77;;;20.90;40.90;;;;;;4998762;28;20112;-61
2021/04/16 12:50:15;;;;;;;2.03;0.98;;;20.80;41.10;;;;;;5010454;28;20109;-65
2021/04/16 12:52:40;;;;;;;2.53;0.85;;;20.70;41.00;;;;;;5000469;28;20018;-64
2021/04/16 12:55:07;;;;;;;3.35;1.10;;;20.70;40.80;;;;;;5011937;28;20026;-61
2021/04/16 12:57:41;;;;;;;3.05;1.00;;;20.60;40.80;;;;;;5011794;28;20665;-61
2021/04/16 13:00:11;;;;;;;5.88;1.10;;;20.40;41.30;;;;;;5011831;28;20026;-62
2021/04/16 13:02:37;;;;;;;4.23;1.10;;;20.30;41.50;;;;;;5009386;28;20034;-62
2021/04/16 13:05:09;;;;;;;4.22;1.00;;;20.30;41.90;;;;;;5002314;28;20030;-61
2021/04/16 13:07:35;;;;;;;2.83;0.98;;;20.30;41.90;;;;;;4991893;28;20026;-61
2021/04/16 13:10:01;;;;;;;4.03;1.10;;;20.30;42.10;;;;;;4992328;28;20026;-61
2021/04/16 13:12:27;;;;;;;2.28;1.02;;;20.20;42.30;;;;;;5007890;28;20026;-62
2021/04/16 13:14:52;;;;;;;1.40;0.88;;;20.20;42.10;;;;;;5011508;28;20026;-62
2021/04/16 13:17:23;;;;;;;2.70;1.13;;;20.10;42.20;;;;;;5010455;28;20091;-61
2021/04/16 13:19:49;;;;;;;2.97;1.13;;;20.00;42.40;;;;;;5011478;28;20436;-62
2021/04/16 13:22:18;;;;;;;2.78;1.00;;;20.00;42.60;;;;;;5011933;28;20769;-61
2021/04/16 13:24:44;;;;;;;3.22;1.13;;;20.00;42.80;;;;;;5010287;28;20148;-62
2021/04/16 13:27:16;;;;;;;4.50;0.88;;;19.90;42.80;;;;;;5011894;28;20046;-61
2021/04/16 13:29:42;;;;;;;3.22;0.80;;;19.90;42.80;;;;;;5010416;28;20123;-61
2021/04/16 13:32:15;;;;;;;2.08;0.80;;;19.80;42.90;;;;;;5011857;28;20161;-62
2021/04/16 13:34:43;;;;;;;2.25;0.80;;;19.80;43.20;;;;;;5011740;28;20150;-62
2021/04/16 13:37:12;;;;;;;1.63;0.85;;;19.80;43.20;;;;;;5011831;28;20030;-61
2021/04/16 13:39:40;;;;;;;2.83;1.00;;;19.70;43.10;;;;;;5010469;28;20033;-61
2021/04/16 13:42:05;;;;;;;2.88;0.80;;;19.60;43.30;;;;;;5010481;28;20057;-62
2021/04/16 13:44:31;;;;;;;3.00;0.90;;;19.60;43.40;;;;;;5011436;28;20026;-61
2021/04/16 13:47:02;;;;;;;2.85;1.10;;;19.60;43.50;;;;;;5011684;28;20025;-62
2021/04/16 13:49:36;;;;;;;1.65;0.80;;;19.60;43.60;;;;;;5010522;28;20391;-61
2021/04/16 13:52:02;;;;;;;1.95;0.90;;;19.50;43.50;;;;;;5010451;28;20030;-62
2021/04/16 13:54:29;;;;;;;3.60;1.02;;;19.50;43.60;;;;;;5010775;28;20026;-61
2021/04/16 13:56:54;;;;;;;3.25;0.88;;;19.40;43.50;;;;;;5009786;28;20030;-61
2021/04/16 13:59:20;;;;;;;1.20;0.80;;;19.40;43.70;;;;;;5010729;28;20506;-61
2021/04/16 14:01:46;;;;;;;3.13;0.90;;;19.40;43.70;;;;;;5011145;28;20030;-61
2021/04/16 14:04:21;;;;;;;2.42;0.82;;;19.30;43.70;;;;;;5010755;28;20471;-64
2021/04/16 14:06:48;;;;;;;1.77;0.93;;;19.30;43.80;;;;;;5010242;28;20026;-64
2021/04/16 14:09:17;;;;;;;7.55;1.30;;;19.30;43.90;;;;;;5010237;28;20030;-64
2021/04/16 14:11:43;;;;;;;2.88;0.85;;;19.30;43.50;;;;;;5010448;28;20513;-62
2021/04/16 14:14:25;;;;;;;4.28;0.93;;;19.30;43.80;;;;;;5013971;28;20079;-62
2021/04/16 14:17:02;;;;;;;3.10;0.80;;;19.30;44.10;;;;;;5015296;28;20026;-62
2021/04/16 14:20:02;;;;;;;2.55;0.90;;;19.20;44.60;;;;;;5015100;28;20030;-62
2021/04/16 14:22:45;;;;;;;6.05;1.23;;;19.10;44.10;;;;;;5015182;28;20030;-61
2021/04/16 14:25:24;;;;;;;2.90;0.80;;;19.10;44.20;;;;;;5014987;28;20030;-62
2021/04/16 14:27:50;;;;;;;2.80;0.85;;;19.00;44.40;;;;;;5015020;28;20026;-62
2021/04/16 14:30:23;;;;;;;3.42;1.00;;;19.00;44.60;;;;;;5013560;28;20403;-63
2021/04/16 14:32:53;;;;;;;2.55;0.80;;;19.00;44.60;;;;;;5014591;28;20095;-63
2021/04/16 14:35:21;;;;;;;5.13;1.17;;;18.90;44.40;;;;;;5013665;28;20061;-63
2021/04/16 14:37:46;;;;;;;2.05;0.90;;;18.90;44.70;;;;;;5013568;28;20030;-63
2021/04/16 14:40:13;;;;;;;3.42;1.05;;;18.80;44.60;;;;;;5015960;28;20110;-62
2021/04/16 14:42:39;;;;;;;5.60;1.20;;;18.80;44.40;;;;;;5014743;28;20030;-62
2021/04/16 14:45:11;;;;;;;15.77;1.58;;;18.80;44.70;;;;;;5014485;28;20117;-64
2021/04/16 14:47:37;;;;;;;13.65;1.88;;;18.80;44.80;;;;;;5014685;28;20030;-62
2021/04/16 14:50:06;;;;;;;5.80;1.52;;;18.80;44.80;;;;;;5013289;28;20498;-63
2021/04/16 14:52:33;;;;;;;6.05;1.10;;;18.80;44.80;;;;;;5014604;28;20022;-67
2021/04/16 14:54:59;;;;;;;8.77;1.27;;;18.80;44.70;;;;;;5006937;28;20438;-63
2021/04/16 14:57:29;;;;;;;9.45;1.52;;;18.80;44.80;;;;;;5003973;28;20113;-68
2021/04/16 14:59:56;;;;;;;10.07;1.90;;;18.70;44.30;;;;;;4994746;28;20491;-67
2021/04/16 15:02:22;;;;;;;10.10;1.75;;;18.70;44.00;;;;;;4994748;28;20045;-73
2021/04/16 15:04:48;;;;;;;8.00;1.80;;;18.70;43.90;;;;;;4993730;28;20038;-64
2021/04/16 15:07:14;;;;;;;11.40;1.80;;;18.60;43.60;;;;;;4994799;28;20027;-66